Latest Weather Observations for Point Fawcett

IDD60901

Issued at 9:45 pm CST Monday 22 September 2014 (issued every 10 minutes, with the page automatically refreshed every 10 minutes)

About weather observations | Map of Darwin area stations | Latest observations for Darwin area | Other Formats
Station Details ID: 200731 Name: POINT FAWCETT Lat: -11.76 Lon: 130.03 Height: 6.5 m
Data from the previous 72 hours. | See also: Recent months at Point Fawcett
Date/Time
CST
Tmp

°C
App
Tmp
°C
Dew
Point
°C
Rel
Hum
%
Delta-T

°C
Wind Press
QNH
hPa
Press
MSL
hPa
Rain
since
9 am
mm
Dir
 
Spd
km/h
Gust
km/h
Spd
kts
Gust
kts
22/09:30pm 26.8 28.3 21.3 72 3.7 NNW 15 19 8 10 1013.5 - -
22/09:00pm 27.0 29.0 22.2 75 3.2 NNW 15 17 8 9 1013.3 1013.2 -
22/08:30pm 27.0 28.6 21.5 72 3.7 NW 15 20 8 11 1013.1 - -
22/08:00pm 27.1 28.8 21.6 72 3.7 WNW 15 17 8 9 1012.7 - -
22/07:30pm 27.3 29.0 21.6 71 3.8 WNW 15 17 8 9 1012.5 - -
22/07:00pm 27.6 29.3 21.6 70 4.0 WNW 15 19 8 10 1012.3 - -
22/06:30pm 27.9 30.0 21.7 69 4.2 WNW 13 17 7 9 1012.0 - -
22/06:00pm 28.9 31.1 21.9 66 4.7 W 13 15 7 8 1011.9 1011.8 -
22/05:30pm 29.7 32.3 21.9 63 5.3 WSW 11 15 6 8 1011.6 - -
22/05:00pm 30.0 32.1 21.7 61 5.6 SW 13 17 7 9 1011.4 - -
22/04:30pm 30.1 32.5 22.3 63 5.3 WSW 13 17 7 9 1011.4 - -
22/04:00pm 30.4 33.2 22.3 62 5.5 WSW 11 19 6 10 1011.2 - -
22/03:30pm 30.6 33.1 22.5 62 5.5 WSW 13 20 7 11 1011.3 - -
22/03:00pm 30.6 32.9 22.7 62 5.4 WSW 15 22 8 12 1011.4 1011.3 -
22/02:30pm 30.1 32.2 22.5 63 5.2 WSW 15 24 8 13 1011.7 - -
22/02:00pm 30.5 32.2 22.4 62 5.5 WSW 17 22 9 12 1012.1 - -
22/01:30pm 30.1 31.8 22.3 63 5.3 WSW 17 24 9 13 1012.5 - -
22/01:00pm 30.0 31.2 22.2 63 5.3 SW 19 28 10 15 1013.1 - -
22/12:30pm 30.1 31.6 22.0 62 5.5 WSW 17 26 9 14 1013.7 - -
22/12:00pm 30.2 32.5 22.1 62 5.5 WSW 13 20 7 11 1014.1 1014.0 -
22/11:30am 29.7 31.7 21.6 61 5.4 WSW 13 17 7 9 1014.6 - -
22/11:00am 29.5 31.1 19.2 54 6.7 W 9 13 5 7 1015.0 - -
22/10:30am 29.2 30.7 18.9 53 6.7 W 9 11 5 6 1015.4 - -
22/10:00am 29.2 31.4 19.5 56 6.3 N 7 9 4 5 1015.7 - -
22/09:30am 28.8 30.8 19.1 55 6.3 N 7 11 4 6 1015.8 - -
22/09:00am 27.9 30.0 18.9 58 5.8 NE 6 9 3 5 1015.7 1015.6 -
22/08:30am 25.5 29.3 21.0 76 3.0 ENE 2 6 1 3 1015.3 - -
22/08:00am 22.9 26.2 21.9 94 0.7 E 7 7 4 4 1015.0 - -
22/07:30am 20.2 22.3 19.4 95 0.5 ESE 7 7 4 4 1014.5 - -
22/07:00am 18.9 20.3 17.9 94 0.6 SE 7 9 4 5 1014.2 - -
22/06:30am 19.0 20.1 18.0 94 0.6 SE 9 11 5 6 1013.7 - -
22/06:00am 19.9 21.4 18.9 94 0.6 E 9 13 5 7 1013.3 1013.2 -
22/05:30am 19.4 20.7 18.4 94 0.6 E 9 13 5 7 1012.9 - -
22/05:00am 18.0 18.6 16.9 93 0.7 E 9 11 5 6 1012.7 - -
22/04:30am 18.1 18.7 16.8 92 0.8 ESE 9 9 5 5 1012.4 - -
22/04:00am 18.3 19.4 17.0 92 0.8 E 7 7 4 4 1012.4 - -
22/03:30am 18.5 19.6 17.0 91 0.9 E 7 7 4 4 1012.4 - -
22/03:00am 19.0 20.2 17.3 90 1.0 E 7 7 4 4 1012.4 1012.3 -
22/02:30am 19.2 21.8 17.5 90 1.0 CALM 0 0 0 0 1012.6 - -
22/02:00am 19.7 21.7 17.8 89 1.2 ESE 4 7 2 4 1012.9 - -
22/01:30am 20.1 21.7 18.2 89 1.2 ESE 7 7 4 4 1013.2 - -
22/01:00am 20.2 21.7 18.0 87 1.4 ESE 7 7 4 4 1013.4 - -
22/12:30am 20.7 22.2 18.1 85 1.6 ESE 7 9 4 5 1013.8 - -
22/12:00am 21.3 23.7 17.9 81 2.1 NW 2 7 1 4 1013.9 1013.8 -
 
Date/Time
CST
Tmp

°C
App
Tmp
°C
Dew
Point
°C
Rel
Hum
%
Delta-T

°C
Wind Press
QNH
hPa
Press
MSL
hPa
Rain
since
9 am
mm
Dir
 
Spd
km/h
Gust
km/h
Spd
kts
Gust
kts
21/11:30pm 22.5 24.2 18.1 76 2.7 WNW 6 11 3 6 1014.0 - -
21/11:00pm 25.0 26.6 19.1 70 3.8 WNW 9 11 5 6 1014.1 - -
21/10:30pm 26.6 28.2 20.7 70 3.9 NW 13 15 7 8 1014.0 - -
21/10:00pm 26.7 28.4 21.0 71 3.8 NW 13 17 7 9 1013.9 - -
21/09:30pm 26.6 28.2 20.7 70 3.9 NW 13 15 7 8 1013.7 - -
21/09:00pm 26.7 28.2 20.5 69 4.1 NW 13 15 7 8 1013.7 1013.6 -
21/08:30pm 26.8 28.3 20.6 69 4.1 NW 13 15 7 8 1013.7 - -
21/08:00pm 26.9 28.7 20.3 67 4.3 NNW 11 17 6 9 1013.5 - -
21/07:30pm 27.1 28.7 20.7 68 4.2 NW 13 19 7 10 1013.0 - -
21/07:00pm 27.3 28.5 19.9 64 4.8 NW 13 17 7 9 1012.7 - -
21/06:30pm 27.8 28.3 20.1 63 5.0 NNW 17 19 9 10 1012.2 - -
21/06:00pm 29.1 30.6 20.5 59 5.7 NW 13 17 7 9 1011.9 1011.8 -
21/05:30pm 29.7 31.0 19.4 54 6.7 WNW 11 13 6 7 1011.7 - -
21/05:00pm 29.7 30.9 19.1 53 6.9 W 11 15 6 8 1011.7 - -
21/04:30pm 30.5 31.9 19.5 51 7.2 W 11 15 6 8 1011.6 - -
21/04:00pm 30.5 31.6 18.9 50 7.5 W 11 17 6 9 1011.8 - -
21/03:30pm 30.7 31.9 19.1 50 7.6 W 11 17 6 9 1011.8 - -
21/03:00pm 31.1 31.9 19.1 48 7.8 W 13 17 7 9 1011.9 1011.8 -
21/02:30pm 31.2 32.6 19.5 49 7.7 WSW 11 17 6 9 1012.1 - -
21/02:00pm 31.6 32.5 19.2 47 8.1 WSW 13 19 7 10 1012.3 - -
21/01:30pm 31.5 32.4 19.2 48 8.0 WSW 13 20 7 11 1012.6 - -
21/01:00pm 31.0 31.6 19.4 50 7.6 WSW 15 20 8 11 1013.0 - -
21/12:30pm 30.9 31.8 19.3 50 7.6 WSW 13 17 7 9 1013.6 - -
21/12:00pm 30.6 31.4 19.0 50 7.5 WSW 13 17 7 9 1014.2 1014.1 -
21/11:30am 29.8 31.2 19.5 54 6.7 WSW 11 17 6 9 1014.9 - -
21/11:00am 30.0 30.9 18.4 49 7.5 WSW 11 15 6 8 1015.3 - -
21/10:30am 29.5 31.0 18.9 53 6.9 WSW 9 13 5 7 1015.4 - -
21/10:00am 30.6 31.6 17.7 46 8.2 ENE 9 13 5 7 1015.4 - -
21/09:30am 28.9 30.6 18.4 53 6.7 S 7 11 4 6 1015.4 - -
21/09:00am 28.2 29.8 18.3 55 6.3 E 7 11 4 6 1015.3 1015.2 -
21/08:30am 25.5 28.8 19.2 68 4.0 CALM 0 6 0 3 1015.0 - -
21/08:00am 22.0 25.0 21.2 95 0.5 SE 7 7 4 4 1014.7 - -
21/07:30am 18.9 20.4 18.1 95 0.5 SE 7 9 4 5 1014.3 - -
21/07:00am 17.0 17.7 16.2 95 0.5 SE 7 9 4 5 1013.9 - -
21/06:30am 16.9 17.5 15.9 94 0.6 SE 7 9 4 5 1013.7 - -
21/06:00am 17.0 17.7 16.0 94 0.6 ESE 7 7 4 4 1013.4 1013.3 -
21/05:30am 17.2 17.9 16.2 94 0.6 ESE 7 9 4 5 1013.2 - -
21/05:00am 17.0 17.7 16.0 94 0.6 E 7 7 4 4 1012.7 - -
21/04:30am 17.0 17.6 15.9 93 0.6 E 7 7 4 4 1012.5 - -
21/04:00am 17.2 17.9 16.1 93 0.7 E 7 7 4 4 1012.7 - -
21/03:30am 17.2 17.8 15.9 92 0.8 E 7 9 4 5 1012.9 - -
21/03:00am 17.3 18.0 16.0 92 0.8 E 7 9 4 5 1012.9 1012.8 -
21/02:30am 17.4 18.0 15.9 91 0.9 E 7 9 4 5 1013.2 - -
21/02:00am 17.7 18.4 16.2 91 0.9 E 7 9 4 5 1013.4 - -
21/01:30am 18.0 18.9 16.5 91 0.9 SE 7 7 4 4 1013.6 - -
21/01:00am 18.3 19.4 16.6 90 1.0 SE 6 7 3 4 1013.8 - -
21/12:30am 18.8 20.0 16.8 88 1.2 SSE 6 7 3 4 1014.1 - -
21/12:00am 19.4 20.5 17.2 87 1.3 SE 7 9 4 5 1014.3 1014.2 -
 
Date/Time
CST
Tmp

°C
App
Tmp
°C
Dew
Point
°C
Rel
Hum
%
Delta-T

°C
Wind Press
QNH
hPa
Press
MSL
hPa
Rain
since
9 am
mm
Dir
 
Spd
km/h
Gust
km/h
Spd
kts
Gust
kts
20/11:30pm 20.0 21.1 17.2 84 1.7 SE 7 9 4 5 1014.0 - -
20/11:00pm 21.3 22.8 17.5 79 2.3 E 6 7 3 4 1013.9 - -
20/10:30pm 23.7 25.3 17.9 70 3.6 NNE 6 7 3 4 1013.6 - -
20/10:00pm 26.1 28.0 19.7 68 4.1 N 9 13 5 7 1013.6 - -
20/09:30pm 26.4 27.9 20.5 70 3.9 N 13 19 7 10 1013.3 - -
20/09:00pm 26.6 27.9 21.6 74 3.3 NNW 17 20 9 11 1013.0 1012.9 -
20/08:30pm 26.8 28.0 21.5 72 3.5 N 17 24 9 13 1012.6 - -
20/08:00pm 26.8 27.3 20.9 70 3.9 NNW 19 24 10 13 1012.4 - -
20/07:30pm 27.0 28.1 21.3 71 3.8 NNW 17 24 9 13 1012.1 - -
20/07:00pm 27.1 27.6 20.9 69 4.1 NNW 19 24 10 13 1011.8 - -
20/06:30pm 27.5 28.0 20.8 67 4.4 NNW 19 24 10 13 1011.6 - -
20/06:00pm 28.1 29.4 21.6 68 4.4 NNW 17 24 9 13 1011.2 1011.1 -
20/05:30pm 29.0 29.7 21.2 62 5.2 NNW 19 24 10 13 1010.8 - -
20/05:00pm 29.2 28.8 21.7 64 5.0 NNW 26 33 14 18 1010.5 - -
20/04:30pm 31.2 32.0 21.4 56 6.6 NNW 19 30 10 16 1010.0 - -
20/04:00pm 33.3 34.5 22.1 52 7.6 N 19 24 10 13 1009.9 - -
20/03:30pm 33.8 32.7 15.3 33 11.5 ESE 15 28 8 15 1010.0 - -
20/03:00pm 33.9 32.8 15.4 33 11.6 SE 15 24 8 13 1010.3 1010.2 -
20/02:30pm 33.1 32.9 17.7 40 9.9 SE 15 26 8 14 1010.9 - -
20/02:00pm 32.9 33.2 18.7 43 9.3 SSE 15 26 8 14 1011.5 - -
20/01:30pm 32.5 34.2 21.0 50 7.7 SE 13 24 7 13 1012.2 - -
20/01:00pm 31.9 33.3 21.1 52 7.2 SSE 15 24 8 13 1013.0 - -
20/12:30pm 31.8 33.1 20.1 50 7.7 SSE 13 24 7 13 1013.6 - -
20/12:00pm 31.5 31.5 18.1 44 8.6 SSE 15 24 8 13 1014.2 1014.1 -
20/11:30am 31.4 32.3 18.4 46 8.4 ENE 11 19 6 10 1014.6 - -
20/11:00am 30.3 30.1 18.4 49 7.7 WNW 17 24 9 13 1015.0 - -
20/10:30am 30.0 31.6 19.1 52 7.1 SSW 9 19 5 10 1015.2 - -
20/10:00am 29.8 30.7 17.6 48 7.7 N 9 13 5 7 1015.4 - -
20/09:30am 28.9 31.6 20.6 61 5.5 N 7 9 4 5 1015.3 - -
20/09:00am 26.6 29.3 20.2 68 4.2 NNW 6 7 3 4 1015.2 1015.1 -
20/08:30am 25.4 30.7 23.1 87 1.6 CALM 0 0 0 0 1014.9 - -
20/08:00am 22.5 25.9 21.7 95 0.5 ESE 6 6 3 3 1014.5 - -
20/07:30am 19.3 21.2 18.5 95 0.5 ESE 6 7 3 4 1014.2 - -
20/07:00am 17.5 18.6 16.7 95 0.5 ESE 6 7 3 4 1013.9 - -
20/06:30am 17.4 18.4 16.4 94 0.6 ESE 6 7 3 4 1013.5 - -
20/06:00am 17.7 18.8 16.7 94 0.6 ESE 6 6 3 3 1013.3 1013.2 -
20/05:30am 17.8 19.0 16.8 94 0.6 ESE 6 7 3 4 1013.2 - -
20/05:00am 18.1 19.3 16.9 93 0.7 ESE 6 7 3 4 1013.1 - -
20/04:30am 18.6 20.0 17.4 93 0.7 ESE 6 6 3 3 1013.0 - -
20/04:00am 19.1 20.7 17.9 93 0.7 ESE 6 7 3 4 1013.3 - -
20/03:30am 19.4 21.2 18.2 93 0.7 ESE 6 7 3 4 1013.6 - -
20/03:00am 19.8 21.5 18.5 92 0.8 ESE 7 7 4 4 1013.6 1013.5 -
20/02:30am 20.1 21.9 18.8 92 0.8 ESE 7 7 4 4 1013.7 - -
20/02:00am 20.5 22.4 19.0 91 0.9 ESE 7 9 4 5 1014.0 - -
20/01:30am 20.9 22.9 19.2 90 1.1 ESE 7 7 4 4 1014.5 - -
20/01:00am 21.0 23.1 19.3 90 1.1 ESE 7 9 4 5 1014.8 - -
20/12:30am 21.3 23.3 19.2 88 1.3 ESE 7 9 4 5 1015.1 - -
20/12:00am 21.7 25.1 19.3 86 1.5 CALM 0 0 0 0 1014.9 1014.8 -
 
Date/Time
CST
Tmp

°C
App
Tmp
°C
Dew
Point
°C
Rel
Hum
%
Delta-T

°C
Wind Press
QNH
hPa
Press
MSL
hPa
Rain
since
9 am
mm
Dir
 
Spd
km/h
Gust
km/h
Spd
kts
Gust
kts
19/11:30pm 22.4 25.8 19.4 83 1.9 CALM 0 0 0 0 1014.9 - -
19/11:00pm 23.6 25.8 19.5 78 2.6 W 7 11 4 6 1014.9 - -
19/10:30pm 25.8 28.3 21.7 78 2.7 W 11 13 6 7 1014.8 - -
19/10:00pm 26.6 29.1 22.4 78 2.8 WNW 13 15 7 8 1014.6 - -

Latest Capital City Observations: Canberra | Sydney | Melbourne | Brisbane | Adelaide | Perth | Hobart | Darwin

Other Formats:

Comma delimited format used in spreadsheet applications
http://www.bom.gov.au/fwo/IDD60901/IDD60901.94122.axf

JavaScript Object Notation format (JSON) in row-major order
http://www.bom.gov.au/fwo/IDD60901/IDD60901.94122.json